sensor_id;sensor_type;location;lat;lon;timestamp;pressure;altitude;pressure_sealevel;temperature
14023;BMP180;7086;48.116;11.580;2023-04-03T00:01:59;95754.00;;;6.90
14023;BMP180;7086;48.116;11.580;2023-04-03T00:04:26;95792.00;;;6.90
14023;BMP180;7086;48.116;11.580;2023-04-03T00:06:54;95790.00;;;6.90
14023;BMP180;7086;48.116;11.580;2023-04-03T00:09:21;95790.00;;;6.90
14023;BMP180;7086;48.116;11.580;2023-04-03T00:11:48;95780.00;;;6.90
14023;BMP180;7086;48.116;11.580;2023-04-03T00:14:15;95785.00;;;6.80
14023;BMP180;7086;48.116;11.580;2023-04-03T00:16:42;95789.00;;;6.80
14023;BMP180;7086;48.116;11.580;2023-04-03T00:19:09;95764.00;;;6.80
14023;BMP180;7086;48.116;11.580;2023-04-03T00:21:37;95792.00;;;6.90
14023;BMP180;7086;48.116;11.580;2023-04-03T00:24:05;95793.00;;;6.80
14023;BMP180;7086;48.116;11.580;2023-04-03T00:26:32;95780.00;;;6.80
14023;BMP180;7086;48.116;11.580;2023-04-03T00:28:59;95785.00;;;6.80
14023;BMP180;7086;48.116;11.580;2023-04-03T00:31:26;95781.00;;;6.90
14023;BMP180;7086;48.116;11.580;2023-04-03T00:33:53;95793.00;;;6.90
14023;BMP180;7086;48.116;11.580;2023-04-03T00:36:20;95786.00;;;6.90
14023;BMP180;7086;48.116;11.580;2023-04-03T00:38:46;95789.00;;;6.80
14023;BMP180;7086;48.116;11.580;2023-04-03T00:41:15;95789.00;;;6.80
14023;BMP180;7086;48.116;11.580;2023-04-03T00:43:41;95780.00;;;6.80
14023;BMP180;7086;48.116;11.580;2023-04-03T00:46:08;95737.00;;;6.60
14023;BMP180;7086;48.116;11.580;2023-04-03T00:48:38;95783.00;;;6.70
14023;BMP180;7086;48.116;11.580;2023-04-03T00:51:07;95791.00;;;6.80
14023;BMP180;7086;48.116;11.580;2023-04-03T00:53:38;95788.00;;;6.70
14023;BMP180;7086;48.116;11.580;2023-04-03T00:56:10;95792.00;;;6.70
14023;BMP180;7086;48.116;11.580;2023-04-03T00:58:42;95787.00;;;6.70
14023;BMP180;7086;48.116;11.580;2023-04-03T01:01:13;95784.00;;;6.70
14023;BMP180;7086;48.116;11.580;2023-04-03T01:03:41;95792.00;;;6.60
14023;BMP180;7086;48.116;11.580;2023-04-03T01:06:07;95787.00;;;6.70
14023;BMP180;7086;48.116;11.580;2023-04-03T01:08:35;95781.00;;;6.70
14023;BMP180;7086;48.116;11.580;2023-04-03T01:11:02;95775.00;;;6.70
14023;BMP180;7086;48.116;11.580;2023-04-03T01:13:31;95787.00;;;6.70
14023;BMP180;7086;48.116;11.580;2023-04-03T01:16:03;95787.00;;;6.70
14023;BMP180;7086;48.116;11.580;2023-04-03T01:18:31;95775.00;;;6.80
14023;BMP180;7086;48.116;11.580;2023-04-03T01:24:03;95794.00;;;6.80
14023;BMP180;7086;48.116;11.580;2023-04-03T01:26:33;95789.00;;;6.90
14023;BMP180;7086;48.116;11.580;2023-04-03T01:29:01;95786.00;;;6.90
14023;BMP180;7086;48.116;11.580;2023-04-03T01:34:01;95798.00;;;6.90
14023;BMP180;7086;48.116;11.580;2023-04-03T01:36:29;95799.00;;;6.90
14023;BMP180;7086;48.116;11.580;2023-04-03T01:38:57;95799.00;;;7.00
14023;BMP180;7086;48.116;11.580;2023-04-03T01:41:25;95803.00;;;7.00
14023;BMP180;7086;48.116;11.580;2023-04-03T01:43:52;95797.00;;;7.00
14023;BMP180;7086;48.116;11.580;2023-04-03T01:46:20;95805.00;;;7.00
14023;BMP180;7086;48.116;11.580;2023-04-03T01:48:47;95806.00;;;7.00
14023;BMP180;7086;48.116;11.580;2023-04-03T01:51:15;95800.00;;;7.00
14023;BMP180;7086;48.116;11.580;2023-04-03T01:53:42;95694.00;;;7.00
14023;BMP180;7086;48.116;11.580;2023-04-03T01:56:09;95792.00;;;7.00
14023;BMP180;7086;48.116;11.580;2023-04-03T01:58:36;95792.00;;;7.00
14023;BMP180;7086;48.116;11.580;2023-04-03T02:01:03;95795.00;;;7.00
14023;BMP180;7086;48.116;11.580;2023-04-03T02:03:29;95792.00;;;7.00
14023;BMP180;7086;48.116;11.580;2023-04-03T02:05:57;95786.00;;;7.00
14023;BMP180;7086;48.116;11.580;2023-04-03T02:08:25;95796.00;;;6.90
14023;BMP180;7086;48.116;11.580;2023-04-03T02:10:52;95791.00;;;7.00
14023;BMP180;7086;48.116;11.580;2023-04-03T02:13:19;95766.00;;;6.90
14023;BMP180;7086;48.116;11.580;2023-04-03T02:15:46;95792.00;;;6.90
14023;BMP180;7086;48.116;11.580;2023-04-03T02:18:13;95776.00;;;7.00
14023;BMP180;7086;48.116;11.580;2023-04-03T02:20:40;95775.00;;;7.00
14023;BMP180;7086;48.116;11.580;2023-04-03T02:23:07;95783.00;;;7.00
14023;BMP180;7086;48.116;11.580;2023-04-03T02:25:36;95774.00;;;7.00
14023;BMP180;7086;48.116;11.580;2023-04-03T02:28:02;95781.00;;;7.00
14023;BMP180;7086;48.116;11.580;2023-04-03T02:30:29;95779.00;;;7.00
14023;BMP180;7086;48.116;11.580;2023-04-03T02:32:56;95776.00;;;7.00
14023;BMP180;7086;48.116;11.580;2023-04-03T02:35:23;95824.00;;;6.90
14023;BMP180;7086;48.116;11.580;2023-04-03T02:37:51;95779.00;;;7.00
14023;BMP180;7086;48.116;11.580;2023-04-03T02:40:19;95775.00;;;7.00
14023;BMP180;7086;48.116;11.580;2023-04-03T02:42:47;95739.00;;;7.00
14023;BMP180;7086;48.116;11.580;2023-04-03T02:45:14;95776.00;;;7.10
14023;BMP180;7086;48.116;11.580;2023-04-03T02:47:41;95766.00;;;7.10
14023;BMP180;7086;48.116;11.580;2023-04-03T02:50:08;95793.00;;;7.10
14023;BMP180;7086;48.116;11.580;2023-04-03T02:52:35;95772.00;;;7.10
14023;BMP180;7086;48.116;11.580;2023-04-03T02:55:02;95780.00;;;7.10
14023;BMP180;7086;48.116;11.580;2023-04-03T02:57:29;95786.00;;;7.10
14023;BMP180;7086;48.116;11.580;2023-04-03T02:59:58;95787.00;;;7.10
14023;BMP180;7086;48.116;11.580;2023-04-03T03:02:24;95792.00;;;7.10
14023;BMP180;7086;48.116;11.580;2023-04-03T03:04:51;95771.00;;;7.10
14023;BMP180;7086;48.116;11.580;2023-04-03T03:07:18;95788.00;;;7.10
14023;BMP180;7086;48.116;11.580;2023-04-03T03:09:45;95769.00;;;7.10
14023;BMP180;7086;48.116;11.580;2023-04-03T03:12:11;95786.00;;;7.10
14023;BMP180;7086;48.116;11.580;2023-04-03T03:14:38;95791.00;;;7.20
14023;BMP180;7086;48.116;11.580;2023-04-03T03:17:07;95790.00;;;7.20
14023;BMP180;7086;48.116;11.580;2023-04-03T03:19:34;95770.00;;;7.20
14023;BMP180;7086;48.116;11.580;2023-04-03T03:22:00;95799.00;;;7.20
14023;BMP180;7086;48.116;11.580;2023-04-03T03:24:27;95796.00;;;7.20
14023;BMP180;7086;48.116;11.580;2023-04-03T03:26:54;95761.00;;;7.20
14023;BMP180;7086;48.116;11.580;2023-04-03T03:29:21;95787.00;;;7.10
14023;BMP180;7086;48.116;11.580;2023-04-03T03:31:48;95761.00;;;7.10
14023;BMP180;7086;48.116;11.580;2023-04-03T03:34:17;95740.00;;;6.90
14023;BMP180;7086;48.116;11.580;2023-04-03T03:36:44;95789.00;;;7.10
14023;BMP180;7086;48.116;11.580;2023-04-03T03:39:11;95715.00;;;7.10
14023;BMP180;7086;48.116;11.580;2023-04-03T03:41:38;95731.00;;;7.10
14023;BMP180;7086;48.116;11.580;2023-04-03T03:44:05;95766.00;;;6.90
14023;BMP180;7086;48.116;11.580;2023-04-03T03:46:32;95796.00;;;7.20
14023;BMP180;7086;48.116;11.580;2023-04-03T03:48:58;95774.00;;;7.20
14023;BMP180;7086;48.116;11.580;2023-04-03T03:51:27;95745.00;;;7.20
14023;BMP180;7086;48.116;11.580;2023-04-03T03:53:54;95670.00;;;7.20
14023;BMP180;7086;48.116;11.580;2023-04-03T03:56:21;95817.00;;;7.10
14023;BMP180;7086;48.116;11.580;2023-04-03T03:58:48;95771.00;;;7.20
14023;BMP180;7086;48.116;11.580;2023-04-03T04:01:17;95789.00;;;7.10
14023;BMP180;7086;48.116;11.580;2023-04-03T04:03:44;95773.00;;;7.20
14023;BMP180;7086;48.116;11.580;2023-04-03T04:06:11;95735.00;;;7.10
14023;BMP180;7086;48.116;11.580;2023-04-03T04:08:39;95782.00;;;7.10
14023;BMP180;7086;48.116;11.580;2023-04-03T04:11:06;95679.00;;;7.20
14023;BMP180;7086;48.116;11.580;2023-04-03T04:13:32;95804.00;;;6.80
14023;BMP180;7086;48.116;11.580;2023-04-03T04:16:00;95798.00;;;6.60
14023;BMP180;7086;48.116;11.580;2023-04-03T04:18:27;95811.00;;;7.00
14023;BMP180;7086;48.116;11.580;2023-04-03T04:20:54;95795.00;;;7.00
14023;BMP180;7086;48.116;11.580;2023-04-03T04:23:20;95790.00;;;7.10
14023;BMP180;7086;48.116;11.580;2023-04-03T04:25:49;95787.00;;;7.20
14023;BMP180;7086;48.116;11.580;2023-04-03T04:28:16;95799.00;;;7.20
14023;BMP180;7086;48.116;11.580;2023-04-03T04:30:43;95785.00;;;7.20
14023;BMP180;7086;48.116;11.580;2023-04-03T04:33:10;95780.00;;;7.20
14023;BMP180;7086;48.116;11.580;2023-04-03T04:35:39;95810.00;;;7.10
14023;BMP180;7086;48.116;11.580;2023-04-03T04:38:06;95799.00;;;7.20
14023;BMP180;7086;48.116;11.580;2023-04-03T04:40:34;95797.00;;;7.20
14023;BMP180;7086;48.116;11.580;2023-04-03T04:43:04;95792.00;;;7.20
14023;BMP180;7086;48.116;11.580;2023-04-03T04:45:33;95770.00;;;7.10
14023;BMP180;7086;48.116;11.580;2023-04-03T04:48:00;95777.00;;;7.10
14023;BMP180;7086;48.116;11.580;2023-04-03T04:50:27;95822.00;;;7.20
14023;BMP180;7086;48.116;11.580;2023-04-03T04:52:56;95794.00;;;7.00
14023;BMP180;7086;48.116;11.580;2023-04-03T04:55:23;95825.00;;;7.20
14023;BMP180;7086;48.116;11.580;2023-04-03T04:57:50;95791.00;;;7.20
14023;BMP180;7086;48.116;11.580;2023-04-03T05:00:19;95785.00;;;7.20
14023;BMP180;7086;48.116;11.580;2023-04-03T05:02:46;95803.00;;;7.20
14023;BMP180;7086;48.116;11.580;2023-04-03T05:05:13;95806.00;;;7.30
14023;BMP180;7086;48.116;11.580;2023-04-03T05:07:40;95722.00;;;7.30
14023;BMP180;7086;48.116;11.580;2023-04-03T05:10:08;95801.00;;;7.30
14023;BMP180;7086;48.116;11.580;2023-04-03T05:12:35;95801.00;;;7.30
14023;BMP180;7086;48.116;11.580;2023-04-03T05:15:03;95815.00;;;7.30
14023;BMP180;7086;48.116;11.580;2023-04-03T05:17:31;95809.00;;;7.30
14023;BMP180;7086;48.116;11.580;2023-04-03T05:19:58;95827.00;;;7.30
14023;BMP180;7086;48.116;11.580;2023-04-03T05:22:25;95756.00;;;7.30
14023;BMP180;7086;48.116;11.580;2023-04-03T05:24:52;95823.00;;;7.30
14023;BMP180;7086;48.116;11.580;2023-04-03T05:27:20;95796.00;;;7.30
14023;BMP180;7086;48.116;11.580;2023-04-03T05:29:49;95798.00;;;7.40
14023;BMP180;7086;48.116;11.580;2023-04-03T05:32:17;95820.00;;;7.40
14023;BMP180;7086;48.116;11.580;2023-04-03T05:34:45;95798.00;;;7.40
14023;BMP180;7086;48.116;11.580;2023-04-03T05:37:12;95827.00;;;7.40
14023;BMP180;7086;48.116;11.580;2023-04-03T05:39:39;95818.00;;;7.40
14023;BMP180;7086;48.116;11.580;2023-04-03T05:42:07;95822.00;;;7.40
14023;BMP180;7086;48.116;11.580;2023-04-03T05:44:34;95763.00;;;7.40
14023;BMP180;7086;48.116;11.580;2023-04-03T05:47:02;95797.00;;;7.40
14023;BMP180;7086;48.116;11.580;2023-04-03T05:49:32;95791.00;;;7.40
14023;BMP180;7086;48.116;11.580;2023-04-03T05:52:02;95788.00;;;7.50
14023;BMP180;7086;48.116;11.580;2023-04-03T05:54:34;95849.00;;;7.00
14023;BMP180;7086;48.116;11.580;2023-04-03T05:57:05;95669.00;;;7.40
14023;BMP180;7086;48.116;11.580;2023-04-03T05:59:32;95789.00;;;7.40
14023;BMP180;7086;48.116;11.580;2023-04-03T06:01:59;95837.00;;;7.50
14023;BMP180;7086;48.116;11.580;2023-04-03T06:04:30;95672.00;;;7.50
14023;BMP180;7086;48.116;11.580;2023-04-03T06:06:57;95829.00;;;7.50
14023;BMP180;7086;48.116;11.580;2023-04-03T06:09:27;95813.00;;;7.50
14023;BMP180;7086;48.116;11.580;2023-04-03T06:11:55;95818.00;;;7.60
14023;BMP180;7086;48.116;11.580;2023-04-03T06:14:24;95837.00;;;7.60
14023;BMP180;7086;48.116;11.580;2023-04-03T06:16:51;95773.00;;;7.60
14023;BMP180;7086;48.116;11.580;2023-04-03T06:19:20;95831.00;;;7.60
14023;BMP180;7086;48.116;11.580;2023-04-03T06:21:49;95818.00;;;7.60
14023;BMP180;7086;48.116;11.580;2023-04-03T06:24:23;95872.00;;;7.60
14023;BMP180;7086;48.116;11.580;2023-04-03T06:26:58;95756.00;;;7.40
14023;BMP180;7086;48.116;11.580;2023-04-03T06:29:39;95794.00;;;7.60
14023;BMP180;7086;48.116;11.580;2023-04-03T06:32:09;95845.00;;;7.60
14023;BMP180;7086;48.116;11.580;2023-04-03T06:34:38;95843.00;;;7.40
14023;BMP180;7086;48.116;11.580;2023-04-03T06:37:10;95854.00;;;7.70
14023;BMP180;7086;48.116;11.580;2023-04-03T06:39:41;95802.00;;;7.60
14023;BMP180;7086;48.116;11.580;2023-04-03T06:42:23;95804.00;;;7.70
14023;BMP180;7086;48.116;11.580;2023-04-03T06:44:56;95844.00;;;7.90
14023;BMP180;7086;48.116;11.580;2023-04-03T06:47:28;95864.00;;;7.90
14023;BMP180;7086;48.116;11.580;2023-04-03T06:50:01;95778.00;;;8.00
14023;BMP180;7086;48.116;11.580;2023-04-03T06:52:31;95847.00;;;7.80
14023;BMP180;7086;48.116;11.580;2023-04-03T06:55:09;95842.00;;;8.10
14023;BMP180;7086;48.116;11.580;2023-04-03T06:57:38;95756.00;;;7.70
14023;BMP180;7086;48.116;11.580;2023-04-03T07:00:07;95847.00;;;7.90
14023;BMP180;7086;48.116;11.580;2023-04-03T07:02:35;95844.00;;;8.10
14023;BMP180;7086;48.116;11.580;2023-04-03T07:05:04;95688.00;;;8.10
14023;BMP180;7086;48.116;11.580;2023-04-03T07:07:37;95856.00;;;8.20
14023;BMP180;7086;48.116;11.580;2023-04-03T07:10:09;95792.00;;;8.20
14023;BMP180;7086;48.116;11.580;2023-04-03T07:12:41;95848.00;;;8.30
14023;BMP180;7086;48.116;11.580;2023-04-03T07:15:12;95838.00;;;8.30
14023;BMP180;7086;48.116;11.580;2023-04-03T07:17:40;95832.00;;;8.00
14023;BMP180;7086;48.116;11.580;2023-04-03T07:20:08;95835.00;;;8.40
14023;BMP180;7086;48.116;11.580;2023-04-03T07:22:36;95861.00;;;8.40
14023;BMP180;7086;48.116;11.580;2023-04-03T07:25:07;95880.00;;;8.40
14023;BMP180;7086;48.116;11.580;2023-04-03T07:27:35;95869.00;;;8.60
14023;BMP180;7086;48.116;11.580;2023-04-03T07:30:06;95889.00;;;8.60
14023;BMP180;7086;48.116;11.580;2023-04-03T07:32:36;95797.00;;;8.60
14023;BMP180;7086;48.116;11.580;2023-04-03T07:35:04;95880.00;;;8.60
14023;BMP180;7086;48.116;11.580;2023-04-03T07:37:31;95883.00;;;8.60
14023;BMP180;7086;48.116;11.580;2023-04-03T07:39:58;95838.00;;;8.60
14023;BMP180;7086;48.116;11.580;2023-04-03T07:42:29;95848.00;;;8.70
14023;BMP180;7086;48.116;11.580;2023-04-03T07:45:11;95761.00;;;8.70
14023;BMP180;7086;48.116;11.580;2023-04-03T07:47:46;95738.00;;;8.80
14023;BMP180;7086;48.116;11.580;2023-04-03T07:50:17;95761.00;;;8.80
14023;BMP180;7086;48.116;11.580;2023-04-03T07:53:03;95762.00;;;8.30
14023;BMP180;7086;48.116;11.580;2023-04-03T07:55:36;95827.00;;;8.30
14023;BMP180;7086;48.116;11.580;2023-04-03T07:58:13;95939.00;;;8.20
14023;BMP180;7086;48.116;11.580;2023-04-03T08:00:48;95804.00;;;8.70
14023;BMP180;7086;48.116;11.580;2023-04-03T08:03:15;95900.00;;;8.70
14023;BMP180;7086;48.116;11.580;2023-04-03T08:05:44;95886.00;;;8.60
14023;BMP180;7086;48.116;11.580;2023-04-03T08:08:13;95876.00;;;8.60
14023;BMP180;7086;48.116;11.580;2023-04-03T08:10:40;95900.00;;;8.60
14023;BMP180;7086;48.116;11.580;2023-04-03T08:13:07;95878.00;;;8.50
14023;BMP180;7086;48.116;11.580;2023-04-03T08:15:35;95905.00;;;8.40
14023;BMP180;7086;48.116;11.580;2023-04-03T08:18:04;95907.00;;;8.50
14023;BMP180;7086;48.116;11.580;2023-04-03T08:20:31;95901.00;;;8.50
14023;BMP180;7086;48.116;11.580;2023-04-03T08:22:57;95904.00;;;8.50
14023;BMP180;7086;48.116;11.580;2023-04-03T08:25:24;95854.00;;;8.60
14023;BMP180;7086;48.116;11.580;2023-04-03T08:27:51;95907.00;;;8.60
14023;BMP180;7086;48.116;11.580;2023-04-03T08:30:18;95872.00;;;8.70
14023;BMP180;7086;48.116;11.580;2023-04-03T08:32:45;95897.00;;;8.60
14023;BMP180;7086;48.116;11.580;2023-04-03T08:35:13;95906.00;;;8.70
14023;BMP180;7086;48.116;11.580;2023-04-03T08:37:41;95902.00;;;8.90
14023;BMP180;7086;48.116;11.580;2023-04-03T08:40:13;95902.00;;;8.90
14023;BMP180;7086;48.116;11.580;2023-04-03T08:42:47;95862.00;;;9.00
14023;BMP180;7086;48.116;11.580;2023-04-03T08:45:22;95892.00;;;9.00
14023;BMP180;7086;48.116;11.580;2023-04-03T08:47:57;95907.00;;;9.10
14023;BMP180;7086;48.116;11.580;2023-04-03T08:50:33;95916.00;;;9.00
14023;BMP180;7086;48.116;11.580;2023-04-03T08:53:01;95908.00;;;9.20
14023;BMP180;7086;48.116;11.580;2023-04-03T08:55:33;95917.00;;;9.30
14023;BMP180;7086;48.116;11.580;2023-04-03T08:58:03;95908.00;;;9.40
14023;BMP180;7086;48.116;11.580;2023-04-03T09:00:37;95877.00;;;9.40
14023;BMP180;7086;48.116;11.580;2023-04-03T09:03:12;95919.00;;;9.50
14023;BMP180;7086;48.116;11.580;2023-04-03T09:05:43;95916.00;;;9.40
14023;BMP180;7086;48.116;11.580;2023-04-03T09:08:21;95908.00;;;9.50
14023;BMP180;7086;48.116;11.580;2023-04-03T09:10:49;95889.00;;;9.50
14023;BMP180;7086;48.116;11.580;2023-04-03T09:13:24;95924.00;;;9.50
14023;BMP180;7086;48.116;11.580;2023-04-03T09:15:54;95936.00;;;9.50
14023;BMP180;7086;48.116;11.580;2023-04-03T09:18:28;95900.00;;;9.60
14023;BMP180;7086;48.116;11.580;2023-04-03T09:21:03;95896.00;;;9.60
14023;BMP180;7086;48.116;11.580;2023-04-03T09:23:37;95917.00;;;9.60
14023;BMP180;7086;48.116;11.580;2023-04-03T09:26:08;95917.00;;;9.60
14023;BMP180;7086;48.116;11.580;2023-04-03T09:28:38;95911.00;;;9.60
14023;BMP180;7086;48.116;11.580;2023-04-03T09:31:17;95910.00;;;9.60
14023;BMP180;7086;48.116;11.580;2023-04-03T09:33:45;95907.00;;;9.70
14023;BMP180;7086;48.116;11.580;2023-04-03T09:36:38;95909.00;;;9.80
14023;BMP180;7086;48.116;11.580;2023-04-03T09:39:17;95906.00;;;9.60
14023;BMP180;7086;48.116;11.580;2023-04-03T09:41:59;95906.00;;;9.80
14023;BMP180;7086;48.116;11.580;2023-04-03T09:44:29;95908.00;;;9.60
14023;BMP180;7086;48.116;11.580;2023-04-03T09:46:57;95888.00;;;9.80
14023;BMP180;7086;48.116;11.580;2023-04-03T09:49:24;95914.00;;;9.90
14023;BMP180;7086;48.116;11.580;2023-04-03T09:51:53;95877.00;;;9.90
14023;BMP180;7086;48.116;11.580;2023-04-03T09:54:30;95889.00;;;9.80
14023;BMP180;7086;48.116;11.580;2023-04-03T09:57:06;95906.00;;;9.50
14023;BMP180;7086;48.116;11.580;2023-04-03T09:59:35;95806.00;;;9.80
14023;BMP180;7086;48.116;11.580;2023-04-03T10:02:29;95793.00;;;9.80
14023;BMP180;7086;48.116;11.580;2023-04-03T10:05:03;95930.00;;;9.90
14023;BMP180;7086;48.116;11.580;2023-04-03T10:07:41;95806.00;;;9.90
14023;BMP180;7086;48.116;11.580;2023-04-03T10:10:28;95879.00;;;9.90
14023;BMP180;7086;48.116;11.580;2023-04-03T10:13:11;95826.00;;;9.80
14023;BMP180;7086;48.116;11.580;2023-04-03T10:15:48;95817.00;;;9.80
14023;BMP180;7086;48.116;11.580;2023-04-03T10:18:33;95779.00;;;9.60
14023;BMP180;7086;48.116;11.580;2023-04-03T10:21:06;95852.00;;;9.80
14023;BMP180;7086;48.116;11.580;2023-04-03T10:23:46;95816.00;;;9.70
14023;BMP180;7086;48.116;11.580;2023-04-03T10:26:32;95795.00;;;9.50
14023;BMP180;7086;48.116;11.580;2023-04-03T10:29:11;95872.00;;;9.60
14023;BMP180;7086;48.116;11.580;2023-04-03T10:31:50;95843.00;;;9.50
14023;BMP180;7086;48.116;11.580;2023-04-03T10:34:24;95891.00;;;9.40
14023;BMP180;7086;48.116;11.580;2023-04-03T10:37:12;95844.00;;;9.40
14023;BMP180;7086;48.116;11.580;2023-04-03T10:39:50;95743.00;;;8.90
14023;BMP180;7086;48.116;11.580;2023-04-03T10:42:26;95820.00;;;9.20
14023;BMP180;7086;48.116;11.580;2023-04-03T10:45:15;95863.00;;;9.00
14023;BMP180;7086;48.116;11.580;2023-04-03T10:47:53;95829.00;;;8.80
14023;BMP180;7086;48.116;11.580;2023-04-03T10:50:29;95889.00;;;9.00
14023;BMP180;7086;48.116;11.580;2023-04-03T10:53:05;95847.00;;;8.80
14023;BMP180;7086;48.116;11.580;2023-04-03T10:55:46;95874.00;;;8.70
14023;BMP180;7086;48.116;11.580;2023-04-03T10:58:21;95832.00;;;8.20
14023;BMP180;7086;48.116;11.580;2023-04-03T11:00:55;95901.00;;;8.20
14023;BMP180;7086;48.116;11.580;2023-04-03T11:03:31;95792.00;;;8.20
14023;BMP180;7086;48.116;11.580;2023-04-03T11:06:02;95953.00;;;7.70
14023;BMP180;7086;48.116;11.580;2023-04-03T11:08:39;95797.00;;;8.00
14023;BMP180;7086;48.116;11.580;2023-04-03T11:11:16;95917.00;;;7.80
14023;BMP180;7086;48.116;11.580;2023-04-03T11:13:48;95909.00;;;7.90
14023;BMP180;7086;48.116;11.580;2023-04-03T11:16:27;95872.00;;;7.90
14023;BMP180;7086;48.116;11.580;2023-04-03T11:18:59;95890.00;;;7.50
14023;BMP180;7086;48.116;11.580;2023-04-03T11:21:29;95755.00;;;8.00
14023;BMP180;7086;48.116;11.580;2023-04-03T11:24:03;95919.00;;;7.90
14023;BMP180;7086;48.116;11.580;2023-04-03T11:26:37;95771.00;;;7.60
14023;BMP180;7086;48.116;11.580;2023-04-03T11:29:09;95829.00;;;8.10
14023;BMP180;7086;48.116;11.580;2023-04-03T11:31:48;95896.00;;;7.90
14023;BMP180;7086;48.116;11.580;2023-04-03T11:34:33;95804.00;;;8.20
14023;BMP180;7086;48.116;11.580;2023-04-03T11:37:10;95910.00;;;8.60
14023;BMP180;7086;48.116;11.580;2023-04-03T11:39:51;95775.00;;;8.60
14023;BMP180;7086;48.116;11.580;2023-04-03T11:42:36;95859.00;;;8.90
14023;BMP180;7086;48.116;11.580;2023-04-03T11:48:02;95890.00;;;8.50
14023;BMP180;7086;48.116;11.580;2023-04-03T11:50:45;95802.00;;;8.80
14023;BMP180;7086;48.116;11.580;2023-04-03T11:53:32;95778.00;;;8.90
14023;BMP180;7086;48.116;11.580;2023-04-03T11:56:03;95823.00;;;8.70
14023;BMP180;7086;48.116;11.580;2023-04-03T11:58:34;95885.00;;;8.60
14023;BMP180;7086;48.116;11.580;2023-04-03T12:01:43;95899.00;;;9.10
14023;BMP180;7086;48.116;11.580;2023-04-03T12:04:13;95939.00;;;9.10
14023;BMP180;7086;48.116;11.580;2023-04-03T12:07:01;95760.00;;;9.10
14023;BMP180;7086;48.116;11.580;2023-04-03T12:09:59;95883.00;;;9.20
14023;BMP180;7086;48.116;11.580;2023-04-03T12:12:34;95889.00;;;9.10
14023;BMP180;7086;48.116;11.580;2023-04-03T12:21:20;95868.00;;;9.10
14023;BMP180;7086;48.116;11.580;2023-04-03T12:27:01;95894.00;;;9.80
14023;BMP180;7086;48.116;11.580;2023-04-03T12:29:33;95886.00;;;9.90
14023;BMP180;7086;48.116;11.580;2023-04-03T12:32:10;95869.00;;;9.90
14023;BMP180;7086;48.116;11.580;2023-04-03T12:34:51;95860.00;;;10.00
14023;BMP180;7086;48.116;11.580;2023-04-03T12:37:39;95863.00;;;10.10
14023;BMP180;7086;48.116;11.580;2023-04-03T12:40:20;95853.00;;;10.30
14023;BMP180;7086;48.116;11.580;2023-04-03T12:43:06;95864.00;;;10.40
14023;BMP180;7086;48.116;11.580;2023-04-03T12:45:41;95836.00;;;10.50
14023;BMP180;7086;48.116;11.580;2023-04-03T12:48:17;95857.00;;;10.60
14023;BMP180;7086;48.116;11.580;2023-04-03T12:50:46;95842.00;;;10.60
14023;BMP180;7086;48.116;11.580;2023-04-03T12:53:18;95789.00;;;10.70
14023;BMP180;7086;48.116;11.580;2023-04-03T12:55:47;95843.00;;;10.90
14023;BMP180;7086;48.116;11.580;2023-04-03T12:58:16;95787.00;;;10.90
14023;BMP180;7086;48.116;11.580;2023-04-03T13:00:43;95819.00;;;11.10
14023;BMP180;7086;48.116;11.580;2023-04-03T13:03:22;95833.00;;;11.20
14023;BMP180;7086;48.116;11.580;2023-04-03T13:05:50;95789.00;;;11.30
14023;BMP180;7086;48.116;11.580;2023-04-03T13:08:19;95835.00;;;11.40
14023;BMP180;7086;48.116;11.580;2023-04-03T13:10:54;95834.00;;;11.40
14023;BMP180;7086;48.116;11.580;2023-04-03T13:13:21;95781.00;;;11.50
14023;BMP180;7086;48.116;11.580;2023-04-03T13:15:49;95822.00;;;11.50
14023;BMP180;7086;48.116;11.580;2023-04-03T13:18:22;95823.00;;;11.60
14023;BMP180;7086;48.116;11.580;2023-04-03T13:20:50;95837.00;;;11.50
14023;BMP180;7086;48.116;11.580;2023-04-03T13:23:19;95838.00;;;11.70
14023;BMP180;7086;48.116;11.580;2023-04-03T13:25:48;95829.00;;;11.70
14023;BMP180;7086;48.116;11.580;2023-04-03T13:28:19;95809.00;;;11.60
14023;BMP180;7086;48.116;11.580;2023-04-03T13:31:03;95823.00;;;11.60
14023;BMP180;7086;48.116;11.580;2023-04-03T13:33:32;95823.00;;;11.70
14023;BMP180;7086;48.116;11.580;2023-04-03T13:36:05;95837.00;;;11.70
14023;BMP180;7086;48.116;11.580;2023-04-03T13:38:35;95820.00;;;11.80
14023;BMP180;7086;48.116;11.580;2023-04-03T13:41:05;95822.00;;;11.90
14023;BMP180;7086;48.116;11.580;2023-04-03T13:43:35;95729.00;;;11.90
14023;BMP180;7086;48.116;11.580;2023-04-03T13:46:25;95788.00;;;11.50
14023;BMP180;7086;48.116;11.580;2023-04-03T13:48:57;95692.00;;;12.00
14023;BMP180;7086;48.116;11.580;2023-04-03T13:51:26;95705.00;;;11.70
14023;BMP180;7086;48.116;11.580;2023-04-03T13:54:16;95823.00;;;11.80
14023;BMP180;7086;48.116;11.580;2023-04-03T13:56:44;95783.00;;;11.70
14023;BMP180;7086;48.116;11.580;2023-04-03T13:59:23;95794.00;;;11.40
14023;BMP180;7086;48.116;11.580;2023-04-03T14:01:55;95835.00;;;11.40
14023;BMP180;7086;48.116;11.580;2023-04-03T14:04:45;95838.00;;;11.40
14023;BMP180;7086;48.116;11.580;2023-04-03T14:07:13;95821.00;;;11.20
14023;BMP180;7086;48.116;11.580;2023-04-03T14:09:43;95767.00;;;11.30
14023;BMP180;7086;48.116;11.580;2023-04-03T14:12:14;95816.00;;;11.20
14023;BMP180;7086;48.116;11.580;2023-04-03T14:14:42;95862.00;;;11.00
14023;BMP180;7086;48.116;11.580;2023-04-03T14:17:17;95734.00;;;11.10
14023;BMP180;7086;48.116;11.580;2023-04-03T14:19:47;95813.00;;;11.10
14023;BMP180;7086;48.116;11.580;2023-04-03T14:22:20;95862.00;;;11.10
14023;BMP180;7086;48.116;11.580;2023-04-03T14:24:50;95808.00;;;11.00
14023;BMP180;7086;48.116;11.580;2023-04-03T14:27:20;95803.00;;;11.10
14023;BMP180;7086;48.116;11.580;2023-04-03T14:29:48;95796.00;;;11.10
14023;BMP180;7086;48.116;11.580;2023-04-03T14:32:17;95795.00;;;11.20
14023;BMP180;7086;48.116;11.580;2023-04-03T14:34:45;95778.00;;;11.20
14023;BMP180;7086;48.116;11.580;2023-04-03T14:37:14;95778.00;;;11.20
14023;BMP180;7086;48.116;11.580;2023-04-03T14:39:43;95801.00;;;11.20
14023;BMP180;7086;48.116;11.580;2023-04-03T14:42:16;95786.00;;;11.30
14023;BMP180;7086;48.116;11.580;2023-04-03T14:44:44;95793.00;;;11.30
14023;BMP180;7086;48.116;11.580;2023-04-03T14:47:12;95800.00;;;11.20
14023;BMP180;7086;48.116;11.580;2023-04-03T14:49:42;95801.00;;;11.20
14023;BMP180;7086;48.116;11.580;2023-04-03T14:52:19;95786.00;;;11.20
14023;BMP180;7086;48.116;11.580;2023-04-03T14:54:47;95799.00;;;11.20
14023;BMP180;7086;48.116;11.580;2023-04-03T14:57:16;95797.00;;;11.20
14023;BMP180;7086;48.116;11.580;2023-04-03T14:59:44;95796.00;;;11.20